Time;durP1;ratioP1;P1;durP2;ratioP2;P2;SDS_P1;SDS_P2;PMS_P1;PMS_P2;Temp;Humidity;BMP_temperature;BMP_pressure;BME280_temperature;BME280_humidity;BME280_pressure;Samples;Min_cycle;Max_cycle;Signal;HPM_P1;HPM_P2
2022/01/28 00:01:11;;;;;;;4.53;1.33;;;;;;;4.44;85.99;101394.91;5092705;28;20036;-75
2022/01/28 00:03:38;;;;;;;4.93;0.95;;;;;;;4.45;85.79;101403.75;5093253;28;20036;-75
2022/01/28 00:06:06;;;;;;;4.88;1.63;;;;;;;4.47;86.08;101415.13;5092005;28;20034;-76
2022/01/28 00:08:31;;;;;;;4.35;1.40;;;;;;;4.49;85.61;101423.81;5093521;28;20036;-74
2022/01/28 00:10:56;;;;;;;2.75;1.10;;;;;;;4.41;85.89;101419.19;5092975;28;20081;-75
2022/01/28 00:13:25;;;;;;;6.20;1.60;;;;;;;4.42;85.92;101425.38;5093115;28;20043;-75
2022/01/28 00:37:58;;;;;;;8.70;1.85;;;;;;;4.35;86.16;101474.94;5073012;28;20044;-75
2022/01/28 00:40:11;;;;;;;7.28;0.88;;;;;;;4.32;85.86;101486.72;5092563;28;20024;-75
2022/01/28 00:42:36;;;;;;;7.72;1.55;;;;;;;4.28;85.72;101480.00;5092792;28;20032;-75
2022/01/28 00:45:02;;;;;;;6.20;1.60;;;;;;;4.27;86.40;101486.31;5093062;28;20047;-76
2022/01/28 00:47:27;;;;;;;7.22;1.30;;;;;;;4.19;86.60;101491.47;5092960;28;20028;-75
2022/01/28 00:49:53;;;;;;;6.50;1.23;;;;;;;4.16;86.33;101483.75;5092663;28;20028;-74
2022/01/28 00:52:18;;;;;;;6.70;1.40;;;;;;;4.14;86.65;101488.38;5092651;28;20319;-73
2022/01/28 00:54:43;;;;;;;9.97;1.77;;;;;;;4.10;86.95;101493.16;5092840;28;20085;-72
2022/01/28 00:57:09;;;;;;;6.70;1.40;;;;;;;4.06;87.03;101490.91;5092823;28;20304;-72
2022/01/28 00:59:34;;;;;;;9.20;2.20;;;;;;;4.04;87.10;101499.03;5091455;28;20097;-72
2022/01/28 01:01:59;;;;;;;10.07;1.40;;;;;;;4.02;86.90;101500.16;5093261;28;20262;-72
2022/01/28 01:04:25;;;;;;;5.83;1.03;;;;;;;4.03;86.36;101492.00;5092793;28;20428;-72
2022/01/28 01:06:50;;;;;;;7.85;1.52;;;;;;;4.02;86.43;101514.31;5092772;28;20074;-72
2022/01/28 01:09:15;;;;;;;9.55;1.35;;;;;;;4.01;86.49;101506.47;5092746;28;20035;-72
2022/01/28 01:11:42;;;;;;;4.10;1.97;;;;;;;4.02;86.52;101517.00;5092695;28;20056;-73
2022/01/28 01:14:07;;;;;;;;;;;;;;;4.00;86.70;101518.94;5094439;28;20296;-73
2022/01/28 01:16:43;;;;;;;8.07;1.83;;;;;;;4.00;86.69;101515.44;5096223;28;19912;-73
2022/01/28 01:21:38;;;;;;;7.47;1.30;;;;;;;4.00;86.35;101515.44;5096344;28;20036;-73
2022/01/28 01:24:04;;;;;;;7.40;2.33;;;;;;;3.95;86.02;101521.16;5096276;28;20282;-73
2022/01/28 01:26:35;;;;;;;6.68;1.35;;;;;;;4.00;86.16;101520.78;5096249;28;20511;-74
2022/01/28 01:29:05;;;;;;;6.20;1.33;;;;;;;3.95;86.24;101529.16;5095924;28;20032;-73
2022/01/28 01:31:30;;;;;;;8.77;1.45;;;;;;;3.96;86.04;101519.34;5096018;28;20093;-73
2022/01/28 01:34:29;;;;;;;9.38;1.45;;;;;;;3.94;86.24;101516.81;5096412;28;20027;-73
2022/01/28 01:36:48;;;;;;;4.82;1.25;;;;;;;3.97;86.20;101519.22;5092882;28;20462;-73
2022/01/28 01:39:23;;;;;;;;;;;;;;;3.97;85.85;101519.22;5096152;28;20359;-73
2022/01/28 01:42:06;;;;;;;11.30;1.73;;;;;;;3.94;86.29;101522.16;5094570;28;19920;-73
2022/01/28 01:45:14;;;;;;;3.25;0.85;;;;;;;3.89;85.85;101529.72;5094395;28;20024;-73
2022/01/28 01:52:55;;;;;;;7.47;0.90;;;;;;;3.89;85.50;101528.88;5095365;28;20026;-73
2022/01/28 01:55:21;;;;;;;8.10;1.02;;;;;;;3.86;85.28;101535.31;5095615;28;20122;-73
2022/01/28 01:57:47;;;;;;;7.10;1.27;;;;;;;3.86;85.24;101543.31;5095280;28;20104;-73
2022/01/28 02:00:13;;;;;;;8.50;1.75;;;;;;;3.81;84.70;101545.53;5094578;28;20035;-73
2022/01/28 02:02:39;;;;;;;9.82;1.40;;;;;;;3.81;85.09;101543.72;5095206;28;20024;-73
2022/01/28 02:05:05;;;;;;;5.97;1.00;;;;;;;3.81;85.25;101541.06;5095064;28;20432;-73
2022/01/28 02:07:31;;;;;;;9.02;1.23;;;;;;;3.77;84.75;101550.28;5095347;28;20032;-73
2022/01/28 02:09:56;;;;;;;6.13;1.05;;;;;;;3.77;84.96;101549.44;5095330;28;20028;-73
2022/01/28 02:12:22;;;;;;;10.83;1.53;;;;;;;3.77;85.13;101560.94;5095070;28;20441;-73
2022/01/28 02:14:47;;;;;;;;;;;;;;;3.68;84.95;101566.25;5095314;28;20036;-73
2022/01/28 02:17:12;;;;;;;3.97;1.57;;;;;;;3.61;85.29;101576.59;5095160;28;20243;-73
2022/01/28 02:19:39;;;;;;;3.57;0.80;;;;;;;3.56;85.42;101578.81;5093815;28;20736;-73
2022/01/28 02:22:05;;;;;;;3.00;0.98;;;;;;;3.63;85.57;101573.78;5095072;28;20081;-73
2022/01/28 02:24:42;;;;;;;7.03;0.90;;;;;;;3.60;85.47;101580.22;5094562;28;20417;-73
2022/01/28 02:27:10;;;;;;;4.75;1.17;;;;;;;3.62;85.36;101588.09;5095054;28;20055;-73
2022/01/28 02:29:36;;;;;;;4.88;1.20;;;;;;;3.58;85.19;101597.34;5093544;28;20028;-73
2022/01/28 02:32:03;;;;;;;;;;;;;;;3.62;85.50;101604.91;5095300;28;20027;-73
2022/01/28 02:34:29;;;;;;;7.00;1.05;;;;;;;3.64;85.58;101604.78;5093266;28;19911;-73
2022/01/28 02:36:55;;;;;;;3.35;1.67;;;;;;;3.66;85.67;101600.19;5093480;28;20035;-73
2022/01/28 02:39:21;;;;;;;8.80;1.02;;;;;;;3.69;84.98;101613.25;5094406;28;20032;-73
2022/01/28 02:41:50;;;;;;;8.95;1.20;;;;;;;3.69;84.69;101605.25;5094458;28;20060;-73
2022/01/28 02:44:36;;;;;;;9.02;1.08;;;;;;;3.70;84.33;101601.63;5093265;28;20060;-73
2022/01/28 02:47:03;;;;;;;2.20;0.77;;;;;;;3.73;84.63;101596.88;5094699;28;20067;-73
2022/01/28 02:49:34;;;;;;;1.80;0.85;;;;;;;3.71;84.58;101595.31;5093319;28;20043;-73
2022/01/28 02:52:01;;;;;;;3.78;1.02;;;;;;;3.70;84.52;101599.78;5094529;28;20028;-73
2022/01/28 02:54:27;;;;;;;4.65;0.80;;;;;;;3.68;84.24;101615.06;5094540;28;20054;-73
2022/01/28 02:56:58;;;;;;;3.60;1.00;;;;;;;3.69;84.62;101610.59;5094338;28;20398;-73
2022/01/28 02:59:23;;;;;;;8.38;1.20;;;;;;;3.63;84.32;101611.09;5094517;28;20040;-73
2022/01/28 03:01:49;;;;;;;5.93;1.17;;;;;;;3.61;84.50;101621.88;5093115;28;20039;-73
2022/01/28 03:04:44;;;;;;;4.30;1.30;;;;;;;3.60;84.94;101638.84;5094173;28;20021;-73
2022/01/28 03:07:00;;;;;;;3.47;0.98;;;;;;;3.65;85.06;101635.81;5093758;28;20116;-73
2022/01/28 03:09:35;;;;;;;5.93;1.17;;;;;;;3.57;84.52;101633.81;5094140;28;20466;-73
2022/01/28 03:12:13;;;;;;;5.82;1.77;;;;;;;3.57;84.10;101624.97;5093858;28;20384;-73
2022/01/28 03:15:04;;;;;;;5.43;0.63;;;;;;;3.53;84.75;101634.19;5093993;28;20038;-73
2022/01/28 03:20:17;;;;;;;7.25;1.58;;;;;;;3.52;84.85;101636.00;5095563;28;20470;-73
2022/01/28 03:22:43;;;;;;;4.30;1.10;;;;;;;3.49;85.02;101636.25;5094553;28;20100;-73
2022/01/28 03:25:08;;;;;;;6.70;1.55;;;;;;;3.47;84.99;101647.03;5093980;28;20488;-73
2022/01/28 03:30:05;;;;;;;3.10;0.70;;;;;;;3.46;85.34;101648.03;5093961;28;20062;-73
2022/01/28 03:32:31;;;;;;;;;;;;;;;3.48;84.80;101650.56;5094552;28;20374;-73
2022/01/28 03:34:56;;;;;;;7.25;1.00;;;;;;;3.45;85.07;101656.13;5093467;28;19908;-73
2022/01/28 03:37:22;;;;;;;8.48;2.00;;;;;;;3.43;85.03;101661.59;5093176;28;20038;-73
2022/01/28 03:39:48;;;;;;;4.47;1.50;;;;;;;3.41;84.94;101668.88;5093725;28;20119;-73
2022/01/28 03:42:13;;;;;;;7.10;1.48;;;;;;;3.42;85.04;101667.03;5093319;28;20511;-73
2022/01/28 03:44:38;;;;;;;3.83;0.85;;;;;;;3.41;85.33;101673.34;5092201;28;20024;-73
2022/01/28 03:47:04;;;;;;;7.88;1.08;;;;;;;3.36;85.29;101673.75;5092333;28;20028;-73
2022/01/28 03:49:29;;;;;;;8.07;1.58;;;;;;;3.37;85.44;101669.28;5092269;28;20081;-73
2022/01/28 03:51:55;;;;;;;8.00;2.28;;;;;;;3.35;85.26;101687.19;5093629;28;20085;-73
2022/01/28 03:54:20;;;;;;;4.43;1.15;;;;;;;3.33;85.47;101690.00;5093338;28;20055;-73
2022/01/28 03:56:46;;;;;;;5.10;2.05;;;;;;;3.33;84.81;101683.81;5093042;28;20036;-73
2022/01/28 03:59:11;;;;;;;5.05;1.05;;;;;;;3.35;85.36;101695.19;5093724;28;20131;-73
2022/01/28 04:01:38;;;;;;;3.43;0.70;;;;;;;3.33;85.20;101694.47;5093438;28;20348;-73
2022/01/28 04:04:59;;;;;;;6.55;2.17;;;;;;;3.36;85.53;101700.41;5093359;28;20133;-73
2022/01/28 04:12:26;;;;;;;6.20;1.00;;;;;;;3.38;85.32;101713.59;5093242;28;20030;-73
2022/01/28 04:17:35;;;;;;;6.70;1.27;;;;;;;3.41;85.34;101724.81;5092964;28;20028;-73
2022/01/28 04:20:01;;;;;;;4.40;0.90;;;;;;;3.41;85.17;101719.50;5093184;28;20031;-73
2022/01/28 04:22:26;;;;;;;8.13;0.88;;;;;;;3.48;84.40;101726.00;5091873;28;20265;-74
2022/01/28 04:24:52;;;;;;;9.77;1.83;;;;;;;3.48;84.38;101741.16;5091525;28;20032;-74
2022/01/28 04:27:17;;;;;;;2.50;1.08;;;;;;;3.48;84.56;101741.16;5093266;28;20043;-73
2022/01/28 04:29:43;;;;;;;9.85;1.10;;;;;;;3.51;84.96;101734.72;5092827;28;20398;-73
2022/01/28 04:32:09;;;;;;;9.60;1.23;;;;;;;3.56;84.86;101735.19;5093207;28;20036;-74
2022/01/28 04:34:35;;;;;;;5.00;1.15;;;;;;;3.59;84.56;101743.75;5092856;28;20036;-74
2022/01/28 04:43:15;;;;;;;6.07;1.42;;;;;;;3.58;84.82;101747.44;5058665;28;20039;-73
2022/01/28 04:47:47;;;;;;;4.47;0.98;;;;;;;3.62;84.90;101764.84;5093071;28;20235;-73
2022/01/28 04:50:40;;;;;;;6.03;1.40;;;;;;;3.63;84.87;101766.53;5096627;28;20036;-73
2022/01/28 04:53:28;;;;;;;5.50;1.67;;;;;;;3.64;84.32;101772.72;5096796;28;20036;-73
2022/01/28 04:56:20;;;;;;;6.03;0.93;;;;;;;3.64;84.81;101775.38;5096541;28;20039;-74
2022/01/28 05:04:01;;;;;;;5.33;1.20;;;;;;;3.59;84.67;101773.09;5096627;28;20077;-74
2022/01/28 05:23:07;;;;;;;10.07;1.00;;;;;;;3.48;84.87;101781.13;5096422;28;20036;-76
2022/01/28 05:27:48;;;;;;;3.53;0.77;;;;;;;3.42;84.70;101794.94;5096180;28;20115;-76
2022/01/28 05:30:14;;;;;;;4.40;0.68;;;;;;;3.40;85.29;101792.41;5096176;28;20516;-75
2022/01/28 05:32:39;;;;;;;2.97;0.85;;;;;;;3.42;85.21;101794.94;5096200;28;20028;-75
2022/01/28 05:35:05;;;;;;;10.65;1.25;;;;;;;3.39;85.64;101808.53;5096048;28;20083;-75
2022/01/28 05:37:30;;;;;;;6.10;0.93;;;;;;;3.41;85.98;101811.91;5095893;28;20024;-75
2022/01/28 05:39:56;;;;;;;3.72;1.20;;;;;;;3.32;85.21;101805.50;5095918;28;20130;-76
2022/01/28 05:42:21;;;;;;;5.70;1.13;;;;;;;3.36;85.83;101811.44;5095873;28;20553;-76
2022/01/28 05:44:46;;;;;;;5.03;0.93;;;;;;;3.33;85.59;101812.53;5095286;28;20028;-76
2022/01/28 05:47:15;;;;;;;3.08;1.20;;;;;;;3.35;85.63;101815.91;5095519;28;20032;-76
2022/01/28 05:49:42;;;;;;;6.57;1.05;;;;;;;3.38;85.69;101814.84;5095524;28;20032;-76
2022/01/28 05:52:08;;;;;;;4.00;0.80;;;;;;;3.34;85.77;101818.72;5095385;28;20432;-76
2022/01/28 05:54:33;;;;;;;;;;;;;;;3.33;85.53;101822.34;5095940;28;20442;-76
2022/01/28 05:56:59;;;;;;;5.28;1.88;;;;;;;3.32;85.75;101825.97;5095569;28;19951;-76
2022/01/28 05:59:24;;;;;;;7.95;1.73;;;;;;;3.33;86.04;101833.84;5094895;28;20048;-76
2022/01/28 06:01:50;;;;;;;5.60;1.38;;;;;;;3.30;86.06;101836.75;5095391;28;20111;-76
2022/01/28 06:04:16;;;;;;;4.20;0.80;;;;;;;3.28;86.15;101832.50;5095468;28;20035;-76
2022/01/28 06:06:42;;;;;;;3.72;1.38;;;;;;;3.25;86.18;101836.25;5095042;28;20428;-76
2022/01/28 06:09:07;;;;;;;5.05;1.38;;;;;;;3.23;86.13;101842.69;5095123;28;20032;-76
2022/01/28 06:11:33;;;;;;;7.80;1.17;;;;;;;3.23;86.69;101842.69;5095379;28;20093;-76
2022/01/28 06:13:58;;;;;;;3.03;1.38;;;;;;;3.23;86.63;101854.19;5095304;28;20039;-76
2022/01/28 06:16:23;;;;;;;3.33;1.20;;;;;;;3.19;86.77;101868.75;5094801;28;20039;-76
2022/01/28 06:18:49;;;;;;;8.83;1.90;;;;;;;3.21;86.63;101863.28;5095192;28;20062;-76
2022/01/28 06:21:14;;;;;;;5.53;0.80;;;;;;;3.22;86.97;101857.84;5095533;28;20262;-76
2022/01/28 06:23:40;;;;;;;10.85;1.15;;;;;;;3.23;87.16;101862.19;5093804;28;20741;-76
2022/01/28 06:26:05;;;;;;;7.32;2.90;;;;;;;3.23;87.34;101870.16;5094386;28;20036;-76
2022/01/28 06:28:31;;;;;;;9.82;1.42;;;;;;;3.21;87.29;101868.63;5094778;28;20377;-76
2022/01/28 06:30:56;;;;;;;4.53;1.08;;;;;;;3.23;87.38;101877.31;5094435;28;20466;-76
2022/01/28 06:33:22;;;;;;;9.57;1.20;;;;;;;3.13;87.53;101879.88;5094449;28;20039;-77
2022/01/28 06:35:47;;;;;;;5.38;1.23;;;;;;;3.11;87.08;101876.47;5094913;28;20036;-77
2022/01/28 06:38:14;;;;;;;8.15;1.30;;;;;;;3.14;87.51;101878.91;5094449;28;20085;-76
2022/01/28 06:40:39;;;;;;;4.18;1.20;;;;;;;3.12;87.28;101886.16;5094552;28;20040;-76
2022/01/28 06:43:08;;;;;;;7.55;2.10;;;;;;;3.16;87.76;101887.63;5093421;28;20105;-76
2022/01/28 06:45:34;;;;;;;6.82;1.23;;;;;;;3.23;87.41;101893.28;5093319;28;20398;-76
2022/01/28 06:48:00;;;;;;;7.38;1.55;;;;;;;3.25;87.41;101889.53;5093109;28;20035;-76
2022/01/28 06:50:25;;;;;;;5.90;1.70;;;;;;;3.25;87.43;101899.34;5093578;28;20036;-77
2022/01/28 06:52:50;;;;;;;4.93;0.95;;;;;;;3.27;87.51;101897.41;5094331;28;20097;-77
2022/01/28 06:55:16;;;;;;;3.88;1.05;;;;;;;3.25;87.66;101896.69;5094866;28;20035;-77
2022/01/28 06:57:42;;;;;;;11.45;1.42;;;;;;;3.22;88.15;101907.59;5094467;28;20036;-77
2022/01/28 07:00:09;;;;;;;9.27;2.38;;;;;;;3.22;88.16;101905.78;5094751;28;20067;-77
2022/01/28 07:02:35;;;;;;;8.50;1.30;;;;;;;3.22;88.07;101910.28;5095563;28;20028;-77
2022/01/28 07:05:00;;;;;;;6.45;2.15;;;;;;;3.11;88.54;101919.09;5096713;28;20028;-77
2022/01/28 07:07:27;;;;;;;4.25;1.30;;;;;;;3.12;88.92;101916.31;5095638;28;20130;-77
2022/01/28 07:09:53;;;;;;;8.60;2.40;;;;;;;3.14;89.53;101926.84;5097751;28;20028;-77
2022/01/28 07:12:19;;;;;;;;;;;;;;;3.01;89.71;101931.44;5095966;28;20055;-77
2022/01/28 07:14:45;;;;;;;5.68;1.23;;;;;;;3.03;89.57;101932.16;5095192;28;20247;-77
2022/01/28 07:17:11;;;;;;;6.47;2.35;;;;;;;2.98;89.89;101927.19;5095135;28;20028;-77
2022/01/28 07:19:36;;;;;;;12.48;1.75;;;;;;;3.09;89.98;101929.00;5094953;28;20378;-77
2022/01/28 07:22:02;;;;;;;6.13;1.67;;;;;;;3.09;88.77;101923.69;5094772;28;20042;-77
2022/01/28 07:24:27;;;;;;;10.05;1.95;;;;;;;3.09;88.86;101929.84;5092766;28;20035;-77
2022/01/28 07:26:53;;;;;;;7.88;2.63;;;;;;;3.22;88.42;101928.91;5093864;28;20047;-77
2022/01/28 07:29:18;;;;;;;5.63;2.07;;;;;;;3.09;88.67;101929.00;5093320;28;20078;-77
2022/01/28 07:31:44;;;;;;;6.07;1.30;;;;;;;3.10;88.44;101933.38;5093489;28;20284;-77
2022/01/28 07:34:10;;;;;;;5.72;1.17;;;;;;;3.09;88.43;101940.50;5093649;28;20032;-76
2022/01/28 07:36:36;;;;;;;11.00;2.58;;;;;;;3.09;87.77;101937.00;5092169;28;20481;-77
2022/01/28 07:39:06;;;;;;;11.65;2.58;;;;;;;3.09;88.34;101943.16;5091858;28;20024;-77
2022/01/28 07:41:33;;;;;;;4.63;1.58;;;;;;;3.09;88.30;101947.66;5093565;28;20105;-76
2022/01/28 07:43:58;;;;;;;6.35;1.60;;;;;;;3.11;88.01;101951.03;5093117;28;20028;-77
2022/01/28 07:46:24;;;;;;;7.53;1.30;;;;;;;3.21;87.83;101948.53;5092973;28;20169;-77
2022/01/28 07:48:50;;;;;;;7.43;2.13;;;;;;;3.24;87.99;101946.44;5093201;28;20032;-77
2022/01/28 07:51:16;;;;;;;4.78;1.20;;;;;;;3.21;88.04;101943.19;5093138;28;20035;-77
2022/01/28 07:53:41;;;;;;;7.57;1.42;;;;;;;3.13;88.22;101946.44;5093804;28;20111;-77
2022/01/28 07:56:06;;;;;;;8.38;1.30;;;;;;;3.22;88.90;101945.75;5093385;28;20470;-77
2022/01/28 07:58:32;;;;;;;5.67;1.50;;;;;;;3.28;88.32;101947.06;5093151;28;20055;-77
2022/01/28 08:00:57;;;;;;;6.13;1.47;;;;;;;3.23;87.73;101952.75;5093010;28;20285;-77
2022/01/28 08:03:22;;;;;;;9.40;2.07;;;;;;;3.27;88.18;101956.00;5091426;28;20266;-76
2022/01/28 08:05:48;;;;;;;8.50;1.75;;;;;;;3.27;87.57;101966.66;5092738;28;20403;-76
2022/01/28 08:08:14;;;;;;;11.27;2.23;;;;;;;3.36;87.60;101974.81;5092912;28;20473;-77
2022/01/28 08:10:40;;;;;;;5.82;2.08;;;;;;;3.45;87.17;101983.88;5092468;28;20325;-77
2022/01/28 08:13:05;;;;;;;9.10;2.45;;;;;;;3.44;87.55;101982.19;5092557;28;20051;-77
2022/01/28 08:15:32;;;;;;;7.22;1.33;;;;;;;3.38;87.31;101996.00;5092661;28;20138;-77
2022/01/28 08:17:57;;;;;;;6.93;2.10;;;;;;;3.34;87.73;101992.72;5092571;28;20036;-77
2022/01/28 08:20:23;;;;;;;7.82;1.65;;;;;;;3.41;87.54;101990.41;5092305;28;20024;-77
2022/01/28 08:22:51;;;;;;;4.18;1.20;;;;;;;3.37;87.59;102005.81;5094013;28;20454;-75
2022/01/28 08:25:19;;;;;;;5.88;1.63;;;;;;;3.40;87.53;102012.72;5095586;28;20402;-74
2022/01/28 08:27:45;;;;;;;7.07;1.80;;;;;;;3.44;87.43;102011.50;5097019;28;20035;-74
2022/01/28 08:30:12;;;;;;;7.25;1.38;;;;;;;3.59;86.63;102007.63;5095864;28;20447;-74
2022/01/28 08:32:38;;;;;;;9.30;1.70;;;;;;;3.54;87.23;102015.16;5096778;28;20421;-74
2022/01/28 08:35:04;;;;;;;5.70;2.08;;;;;;;4.02;86.46;102014.88;5096748;28;20462;-74
2022/01/28 08:37:29;;;;;;;6.85;1.63;;;;;;;3.88;86.65;102016.00;5096504;28;20093;-74
2022/01/28 08:39:55;;;;;;;7.28;1.88;;;;;;;4.08;85.71;102019.72;5096598;28;20024;-74
2022/01/28 08:42:20;;;;;;;4.00;1.52;;;;;;;4.08;86.05;102022.38;5096347;28;20059;-74
2022/01/28 08:44:45;;;;;;;10.35;1.98;;;;;;;4.10;85.50;102025.78;5096139;28;20028;-74
2022/01/28 08:47:11;;;;;;;6.53;1.80;;;;;;;4.01;85.25;102029.19;5096179;28;20032;-74
2022/01/28 08:49:36;;;;;;;5.33;1.57;;;;;;;4.17;85.07;102037.63;5096599;28;20102;-74
2022/01/28 08:52:02;;;;;;;8.52;1.88;;;;;;;4.19;84.61;102027.69;5095041;28;20254;-74
2022/01/28 08:54:28;;;;;;;6.78;1.80;;;;;;;4.19;85.04;102025.88;5096579;28;20115;-74
2022/01/28 08:56:53;;;;;;;5.60;1.92;;;;;;;4.12;84.67;102026.50;5096515;28;20111;-74
2022/01/28 08:59:19;;;;;;;6.00;1.90;;;;;;;4.12;85.00;102029.19;5096914;28;20044;-74
2022/01/28 09:01:44;;;;;;;8.87;2.43;;;;;;;4.22;85.22;102030.13;5096285;28;20700;-74
2022/01/28 09:04:09;;;;;;;4.13;1.50;;;;;;;4.24;84.70;102022.84;5096061;28;20024;-75
2022/01/28 09:06:35;;;;;;;10.48;2.15;;;;;;;4.42;83.92;102018.66;5096341;28;20054;-74
2022/01/28 09:09:01;;;;;;;5.18;1.48;;;;;;;4.38;84.28;102019.03;5096285;28;20035;-74
2022/01/28 09:13:53;;;;;;;6.80;2.03;;;;;;;4.49;84.55;102027.84;5096004;28;20031;-74
2022/01/28 09:16:21;;;;;;;7.95;1.42;;;;;;;4.43;83.99;102031.03;5095905;28;20501;-74
2022/01/28 09:18:47;;;;;;;10.05;1.70;;;;;;;4.41;84.19;102035.66;5097594;28;20104;-73
2022/01/28 09:21:13;;;;;;;5.97;1.30;;;;;;;4.42;83.93;102029.34;5097083;28;20447;-74
2022/01/28 09:23:38;;;;;;;11.98;1.98;;;;;;;4.47;83.44;102039.66;5095963;28;20127;-74
2022/01/28 09:26:03;;;;;;;12.15;1.92;;;;;;;4.44;82.88;102038.06;5095280;28;20455;-74
2022/01/28 09:28:29;;;;;;;3.88;1.50;;;;;;;4.59;82.80;102040.44;5095262;28;20032;-74
2022/01/28 09:30:57;;;;;;;2.80;1.15;;;;;;;4.71;82.06;102050.94;5095723;28;20052;-74
2022/01/28 09:33:23;;;;;;;10.00;1.45;;;;;;;4.69;82.29;102044.88;5095492;28;20085;-74
2022/01/28 09:35:48;;;;;;;5.82;1.00;;;;;;;4.71;80.44;102050.09;5094481;28;20039;-74
2022/01/28 09:38:14;;;;;;;7.20;1.38;;;;;;;4.64;80.48;102055.13;5095590;28;20038;-74
2022/01/28 09:40:39;;;;;;;10.20;1.67;;;;;;;4.60;80.27;102050.16;5095511;28;20067;-74
2022/01/28 09:43:07;;;;;;;4.57;1.88;;;;;;;4.64;79.99;102054.28;5095112;28;20036;-74
2022/01/28 09:45:33;;;;;;;2.80;1.27;;;;;;;4.66;80.27;102049.66;5095215;28;20024;-74
2022/01/28 09:48:00;;;;;;;6.70;1.40;;;;;;;4.76;79.92;102062.13;5095670;28;20024;-74
2022/01/28 09:50:28;;;;;;;7.65;0.88;;;;;;;4.86;79.69;102059.50;5095157;28;20031;-74
2022/01/28 09:52:55;;;;;;;5.18;1.00;;;;;;;4.79;79.01;102059.19;5095228;28;20081;-73
2022/01/28 09:55:21;;;;;;;4.18;1.02;;;;;;;4.82;78.59;102056.28;5095558;28;20020;-74
2022/01/28 09:57:51;;;;;;;;;;;;;;;4.75;78.54;102055.06;5095322;28;20047;-74
2022/01/28 10:00:19;;;;;;;10.70;1.90;;;;;;;4.83;78.44;102060.63;5093734;28;19961;-74
2022/01/28 10:02:50;;;;;;;5.40;1.42;;;;;;;4.73;78.64;102057.03;5095376;28;20020;-74
2022/01/28 10:05:26;;;;;;;7.47;1.10;;;;;;;4.76;79.36;102061.25;5094600;28;20035;-74
2022/01/28 10:08:00;;;;;;;5.93;1.50;;;;;;;4.80;79.56;102068.91;5094759;28;20028;-74
2022/01/28 10:10:26;;;;;;;5.68;1.65;;;;;;;4.75;78.62;102075.59;5093624;28;20409;-74
2022/01/28 10:13:14;;;;;;;12.48;2.65;;;;;;;4.76;78.48;102080.81;5093724;28;20039;-74
2022/01/28 10:16:16;;;;;;;9.23;1.33;;;;;;;4.98;79.06;102081.69;5094596;28;20063;-74
2022/01/28 10:18:43;;;;;;;6.53;1.80;;;;;;;5.00;78.86;102087.75;5094621;28;20036;-74
2022/01/28 10:21:28;;;;;;;8.65;1.08;;;;;;;4.97;77.83;102086.19;5094338;28;20413;-74
2022/01/28 10:24:02;;;;;;;4.10;0.95;;;;;;;5.03;78.23;102083.00;5094442;28;20378;-74
2022/01/28 10:26:29;;;;;;;8.57;1.20;;;;;;;5.08;75.83;102082.59;5094543;28;20168;-74
2022/01/28 10:28:55;;;;;;;10.18;1.30;;;;;;;5.09;75.36;102070.94;5093496;28;20024;-74
2022/01/28 10:31:20;;;;;;;6.20;0.90;;;;;;;5.12;75.55;102079.56;5094774;28;20481;-73
2022/01/28 10:33:45;;;;;;;5.30;1.35;;;;;;;5.12;73.81;102079.56;5094596;28;20036;-74
2022/01/28 10:36:11;;;;;;;8.90;1.55;;;;;;;5.13;74.08;102075.91;5094227;28;20042;-74
2022/01/28 10:38:38;;;;;;;8.82;1.80;;;;;;;5.19;74.01;102079.91;5094159;28;20032;-74
2022/01/28 10:41:16;;;;;;;8.07;1.52;;;;;;;5.27;72.05;102065.88;5093023;28;20024;-74
2022/01/28 10:43:42;;;;;;;4.13;1.10;;;;;;;5.23;71.13;102073.28;5094083;28;20089;-74
2022/01/28 10:46:07;;;;;;;6.75;1.13;;;;;;;5.28;71.34;102070.25;5093872;28;20032;-74
2022/01/28 10:48:47;;;;;;;6.28;1.58;;;;;;;5.44;71.34;102067.94;5093924;28;20119;-74
2022/01/28 10:51:12;;;;;;;5.93;1.00;;;;;;;5.38;71.36;102073.81;5093915;28;20432;-74
2022/01/28 10:53:37;;;;;;;5.97;1.10;;;;;;;5.38;71.03;102072.00;5094399;28;20028;-74
2022/01/28 10:56:11;;;;;;;5.53;1.43;;;;;;;5.32;70.59;102075.19;5092999;28;20277;-74
2022/01/28 10:58:38;;;;;;;4.50;1.40;;;;;;;5.37;70.46;102081.00;5093963;28;20044;-74
2022/01/28 11:01:04;;;;;;;9.13;2.47;;;;;;;5.40;69.49;102070.03;5093730;28;20049;-74
2022/01/28 11:03:29;;;;;;;;;;;;;;;5.49;69.82;102073.75;5093970;28;20117;-74
2022/01/28 11:05:59;;;;;;;5.85;2.30;;;;;;;5.56;70.52;102088.28;5092898;28;19978;-73
2022/01/28 11:08:27;;;;;;;4.32;0.90;;;;;;;5.64;69.67;102080.47;5093884;28;20035;-73
2022/01/28 11:10:53;;;;;;;7.35;1.75;;;;;;;5.70;69.85;102085.28;5093821;28;20032;-74
2022/01/28 11:13:18;;;;;;;5.93;1.13;;;;;;;5.57;69.28;102080.13;5094205;28;20039;-74
2022/01/28 11:15:44;;;;;;;6.82;1.40;;;;;;;5.61;69.65;102090.56;5094150;28;20044;-74
2022/01/28 11:18:10;;;;;;;9.65;1.88;;;;;;;5.62;70.39;102081.56;5093447;28;20024;-73
2022/01/28 11:20:59;;;;;;;3.05;0.88;;;;;;;5.63;70.02;102083.25;5093582;28;20028;-74
2022/01/28 11:23:52;;;;;;;7.57;1.38;;;;;;;5.92;71.40;102092.31;5093709;28;20031;-74
2022/01/28 11:26:41;;;;;;;4.82;1.05;;;;;;;5.73;69.04;102103.72;5093092;28;20257;-73
2022/01/28 11:29:19;;;;;;;7.03;1.45;;;;;;;5.69;68.80;102102.31;5093307;28;20028;-73
2022/01/28 11:32:08;;;;;;;4.55;0.80;;;;;;;5.57;68.43;102095.31;5093236;28;20032;-74
2022/01/28 11:34:34;;;;;;;3.83;0.82;;;;;;;5.49;69.00;102081.78;5092980;28;20118;-74
2022/01/28 11:37:02;;;;;;;6.43;1.27;;;;;;;5.52;69.23;102070.81;5093105;28;20035;-74
2022/01/28 11:39:38;;;;;;;6.20;1.85;;;;;;;5.65;69.49;102065.25;5093147;28;20497;-73
2022/01/28 11:42:08;;;;;;;3.10;1.15;;;;;;;5.63;68.86;102070.75;5093586;28;20039;-74
2022/01/28 11:44:49;;;;;;;9.38;1.25;;;;;;;5.59;68.56;102058.59;5092036;28;20028;-74
2022/01/28 11:47:27;;;;;;;4.97;1.95;;;;;;;5.67;68.96;102050.78;5092009;28;20382;-73
2022/01/28 11:49:55;;;;;;;8.27;1.25;;;;;;;5.71;69.44;102048.69;5093291;28;20028;-73
2022/01/28 11:52:24;;;;;;;7.03;1.30;;;;;;;5.80;69.53;102055.91;5093394;28;20067;-73
2022/01/28 11:54:50;;;;;;;10.35;1.20;;;;;;;5.85;68.32;102051.00;5092252;28;20032;-74
2022/01/28 11:57:16;;;;;;;4.70;1.58;;;;;;;6.03;68.75;102044.06;5091483;28;21013;-73
2022/01/28 11:59:43;;;;;;;10.43;1.25;;;;;;;6.04;66.70;102043.09;5093282;28;20137;-73
2022/01/28 12:02:09;;;;;;;;;;;;;;;6.09;65.95;102046.19;5093501;28;20032;-74
2022/01/28 12:04:36;;;;;;;4.95;1.00;;;;;;;6.02;66.16;102036.16;5093071;28;19917;-74
2022/01/28 12:07:02;;;;;;;5.53;2.08;;;;;;;6.10;65.69;102039.00;5092744;28;20032;-74
2022/01/28 12:09:29;;;;;;;2.83;0.93;;;;;;;6.13;66.21;102041.41;5092697;28;20028;-74
2022/01/28 12:11:55;;;;;;;8.63;2.25;;;;;;;6.56;66.27;102030.38;5093205;28;20038;-73
2022/01/28 12:15:04;;;;;;;2.95;1.02;;;;;;;6.41;64.93;102031.75;5093000;28;20028;-73
2022/01/28 12:17:29;;;;;;;4.53;0.80;;;;;;;6.78;65.28;102039.97;5093319;28;20136;-73
2022/01/28 12:20:14;;;;;;;5.80;1.65;;;;;;;6.99;63.47;102026.44;5093044;28;20032;-73
2022/01/28 12:23:04;;;;;;;6.07;1.45;;;;;;;7.46;64.54;102028.16;5093870;28;20027;-74
2022/01/28 12:25:39;;;;;;;5.38;1.50;;;;;;;7.31;63.54;102034.97;5091727;28;20443;-74
2022/01/28 12:28:19;;;;;;;5.30;0.70;;;;;;;7.39;63.48;102021.69;5092990;28;20089;-74
2022/01/28 12:30:47;;;;;;;5.55;1.35;;;;;;;7.48;62.44;102011.94;5092978;28;20032;-74
2022/01/28 12:33:13;;;;;;;4.35;1.13;;;;;;;7.24;61.47;102015.09;5093023;28;20111;-74
2022/01/28 12:35:40;;;;;;;3.30;0.70;;;;;;;7.30;61.83;102018.06;5091819;28;20043;-74
2022/01/28 12:38:06;;;;;;;3.10;0.73;;;;;;;7.29;63.18;102020.88;5092569;28;20086;-73
2022/01/28 12:40:45;;;;;;;;;;;;;;;7.10;61.48;102012.88;5092201;28;20081;-73
2022/01/28 12:43:10;;;;;;;5.28;1.20;;;;;;;7.37;63.34;102020.13;5093268;28;19908;-73
2022/01/28 12:45:36;;;;;;;8.27;1.17;;;;;;;7.54;62.43;102014.84;5093171;28;20028;-74
2022/01/28 12:48:01;;;;;;;11.20;1.67;;;;;;;7.31;63.66;102017.06;5091335;28;20036;-73
2022/01/28 12:50:32;;;;;;;6.47;1.30;;;;;;;7.60;64.47;102027.69;5092721;28;20035;-73
2022/01/28 12:52:57;;;;;;;10.13;1.83;;;;;;;7.68;63.99;102008.19;5092684;28;20107;-73
2022/01/28 12:55:32;;;;;;;3.85;1.48;;;;;;;7.52;63.05;102010.66;5092874;28;20176;-73
2022/01/28 12:57:57;;;;;;;5.68;1.00;;;;;;;7.26;60.82;102005.91;5091412;28;20394;-74